createdAt,value
2019-01-24T00:01:06.657Z,1001.57
2019-01-24T00:02:16.196Z,1001.6
2019-01-24T00:03:26.002Z,1001.59
2019-01-24T00:04:35.244Z,1001.6
2019-01-24T00:05:44.754Z,1001.63
2019-01-24T00:06:54.014Z,1001.66
2019-01-24T00:08:03.781Z,1001.66
2019-01-24T00:09:12.766Z,1001.65
2019-01-24T00:10:21.789Z,1001.64
2019-01-24T00:11:30.589Z,1001.68
2019-01-24T00:12:39.891Z,1001.65
2019-01-24T00:13:49.149Z,1001.69
2019-01-24T00:14:58.473Z,1001.7
2019-01-24T00:16:08.025Z,1001.69
2019-01-24T00:17:17.938Z,1001.72
2019-01-24T00:18:27.474Z,1001.73
2019-01-24T00:19:37.214Z,1001.68
2019-01-24T00:20:46.232Z,1001.71
2019-01-24T00:21:55.517Z,1001.71
2019-01-24T00:23:04.341Z,1001.76
2019-01-24T00:24:13.824Z,1001.8
2019-01-24T00:25:22.878Z,1001.84
2019-01-24T00:26:32.285Z,1001.84
2019-01-24T00:27:41.346Z,1001.85
2019-01-24T00:28:50.857Z,1001.83
2019-01-24T00:29:59.845Z,1001.89
2019-01-24T00:31:09.324Z,1001.85
2019-01-24T00:32:18.870Z,1001.86
2019-01-24T00:33:28.167Z,1001.86
2019-01-24T00:34:37.177Z,1001.87
2019-01-24T00:35:46.443Z,1001.89
2019-01-24T00:36:55.946Z,1001.9
2019-01-24T00:38:05.476Z,1001.94
2019-01-24T00:39:14.592Z,1001.92
2019-01-24T00:40:23.829Z,1001.91
2019-01-24T00:41:33.139Z,1001.92
2019-01-24T00:42:42.725Z,1002
2019-01-24T00:43:52.023Z,1001.97
2019-01-24T00:45:01.290Z,1001.97
2019-01-24T00:46:11.100Z,1001.98
2019-01-24T00:47:20.246Z,1001.98
2019-01-24T00:48:29.286Z,1001.98
2019-01-24T00:49:38.539Z,1002
2019-01-24T00:50:48.057Z,1002
2019-01-24T00:51:57.323Z,1002.01
2019-01-24T00:53:06.327Z,1002.03
2019-01-24T00:54:15.865Z,1002.05
2019-01-24T00:55:24.910Z,1002.03
2019-01-24T00:56:34.695Z,1002.04
2019-01-24T00:57:43.748Z,1002.09
2019-01-24T00:58:53.013Z,1002.07
2019-01-24T01:00:01.779Z,1002.12
2019-01-24T01:01:10.615Z,1002.11
2019-01-24T01:02:20.670Z,1002.11
2019-01-24T01:03:30.445Z,1002.12
2019-01-24T01:04:40.097Z,1002.14
2019-01-24T01:05:48.849Z,1002.18
2019-01-24T01:06:57.823Z,1002.18
2019-01-24T01:08:07.104Z,1002.18
2019-01-24T01:09:16.094Z,1002.23
2019-01-24T01:10:25.626Z,1002.24
2019-01-24T01:11:34.960Z,1002.23
2019-01-24T01:12:44.237Z,1002.25
2019-01-24T01:13:53.501Z,1002.26
2019-01-24T01:15:02.612Z,1002.26
2019-01-24T01:16:11.552Z,1002.28
2019-01-24T01:17:20.871Z,1002.29
2019-01-24T01:18:30.100Z,1002.3
2019-01-24T01:19:39.355Z,1002.3
2019-01-24T01:20:48.855Z,1002.34
2019-01-24T01:21:58.215Z,1002.33
2019-01-24T01:23:07.528Z,1002.37
2019-01-24T01:24:17.257Z,1002.36
2019-01-24T01:25:26.579Z,1002.39
2019-01-24T01:26:35.625Z,1002.41
2019-01-24T01:27:45.178Z,1002.44
2019-01-24T01:28:55.176Z,1002.43
2019-01-24T01:30:04.692Z,1002.42
2019-01-24T01:31:14.244Z,1002.49
2019-01-24T01:32:23.732Z,1002.5
2019-01-24T01:33:32.768Z,1002.51
2019-01-24T01:34:41.732Z,1002.49
2019-01-24T01:35:51.222Z,1002.49
2019-01-24T01:37:00.230Z,1002.49
2019-01-24T01:38:09.496Z,1002.47
2019-01-24T01:39:20.330Z,1002.49
2019-01-24T01:40:29.343Z,1002.49
2019-01-24T01:41:39.109Z,1002.54
2019-01-24T01:42:48.417Z,1002.56
2019-01-24T01:43:57.940Z,1002.58
2019-01-24T01:45:07.010Z,1002.61
2019-01-24T01:46:16.546Z,1002.62
2019-01-24T01:47:26.102Z,1002.61
2019-01-24T01:48:35.377Z,1002.62
2019-01-24T01:49:44.377Z,1002.67
2019-01-24T01:50:53.363Z,1002.68
2019-01-24T01:52:02.874Z,1002.65
2019-01-24T01:53:12.427Z,1002.68
2019-01-24T01:54:21.741Z,1002.7
2019-01-24T01:55:31.338Z,1002.67
2019-01-24T01:56:40.591Z,1002.71
2019-01-24T01:57:49.863Z,1002.72
2019-01-24T01:58:58.845Z,1002.67
2019-01-24T02:00:08.068Z,1002.72
2019-01-24T02:01:17.141Z,1002.72
2019-01-24T02:02:26.624Z,1002.76
2019-01-24T02:03:36.037Z,1002.75
2019-01-24T02:04:45.268Z,1002.77
2019-01-24T02:05:54.544Z,1002.78
2019-01-24T02:07:03.851Z,1002.76
2019-01-24T02:08:13.126Z,1002.77
2019-01-24T02:09:22.667Z,1002.76
2019-01-24T02:10:31.739Z,1002.79
2019-01-24T02:11:40.501Z,1002.74
2019-01-24T02:12:50.279Z,1002.81
2019-01-24T02:13:59.278Z,1002.79
2019-01-24T02:15:08.309Z,1002.84
2019-01-24T02:16:17.484Z,1002.83
2019-01-24T02:17:26.998Z,1002.86
2019-01-24T02:18:35.826Z,1002.86
2019-01-24T02:19:45.349Z,1002.84
2019-01-24T02:20:54.634Z,1002.84
2019-01-24T02:22:03.382Z,1002.87
2019-01-24T02:23:12.918Z,1002.89
2019-01-24T02:24:22.693Z,1002.85
2019-01-24T02:25:32.228Z,1002.88
2019-01-24T02:26:41.353Z,1002.81
2019-01-24T02:27:50.852Z,1002.87
2019-01-24T02:28:59.941Z,1002.88
2019-01-24T02:30:09.211Z,1002.93
2019-01-24T02:31:18.529Z,1002.94
2019-01-24T02:32:28.137Z,1002.96
2019-01-24T02:33:37.679Z,1002.97
2019-01-24T02:34:49.628Z,1002.95
2019-01-24T02:35:59.358Z,1002.96
2019-01-24T02:37:08.634Z,1002.94
2019-01-24T02:38:18.513Z,1002.95
2019-01-24T02:39:28.276Z,1002.95
2019-01-24T02:40:37.811Z,1002.97
2019-01-24T02:41:46.849Z,1003.01
2019-01-24T02:42:56.405Z,1003.06
2019-01-24T02:44:05.938Z,1003.01
2019-01-24T02:45:15.471Z,1003.03
2019-01-24T02:46:24.993Z,1003
2019-01-24T02:47:34.317Z,1003.01
2019-01-24T02:48:43.890Z,1003.02
2019-01-24T02:49:52.879Z,1003.02
2019-01-24T02:51:02.133Z,1003.04
2019-01-24T02:52:11.426Z,1003.02
2019-01-24T02:53:21.527Z,1003.03
2019-01-24T02:54:30.863Z,1003.03
2019-01-24T02:55:39.620Z,1002.96
2019-01-24T02:56:49.129Z,1002.97
2019-01-24T02:57:58.151Z,1002.98
2019-01-24T02:59:07.922Z,1002.98
2019-01-24T03:00:17.464Z,1003
2019-01-24T03:01:27.186Z,1003
2019-01-24T03:02:36.195Z,1003.01
2019-01-24T03:03:45.464Z,1003.02
2019-01-24T03:04:56.987Z,1003.03
2019-01-24T03:06:06.434Z,1003.1
2019-01-24T03:07:15.453Z,1003.1
2019-01-24T03:08:24.231Z,1003.09
2019-01-24T03:09:33.740Z,1003.15
2019-01-24T03:10:42.986Z,1003.08
2019-01-24T03:11:52.781Z,1003.09
2019-01-24T03:13:01.828Z,1003.08
2019-01-24T03:14:11.357Z,1003.11
2019-01-24T03:15:20.895Z,1003.12
2019-01-24T03:16:30.189Z,1003.16
2019-01-24T03:17:39.214Z,1003.13
2019-01-24T03:18:48.969Z,1003.11
2019-01-24T03:19:59.059Z,1003.13
2019-01-24T03:21:08.547Z,1003.12
2019-01-24T03:22:17.604Z,1003.14
2019-01-24T03:23:26.968Z,1003.07
2019-01-24T03:24:36.459Z,1003.08
2019-01-24T03:25:45.788Z,1003.07
2019-01-24T03:26:55.111Z,1003.05
2019-01-24T03:28:03.908Z,1003.07
2019-01-24T03:29:13.191Z,1003.09
2019-01-24T03:30:23.010Z,1003.02
2019-01-24T03:31:32.953Z,1003.03
2019-01-24T03:32:43.027Z,1003.03
2019-01-24T03:33:52.572Z,1003.02
2019-01-24T03:35:04.153Z,1003.05
2019-01-24T03:36:14.091Z,1003.08
2019-01-24T03:37:23.716Z,1003.05
2019-01-24T03:38:33.001Z,1003.09
2019-01-24T03:39:42.559Z,1003.13
2019-01-24T03:40:52.104Z,1003.12
2019-01-24T03:42:01.632Z,1003.12
2019-01-24T03:43:11.456Z,1003.09
2019-01-24T03:44:20.502Z,1003.12
2019-01-24T03:45:29.752Z,1003.08
2019-01-24T03:46:39.046Z,1003.07
2019-01-24T03:47:47.808Z,1003.11
2019-01-24T03:48:57.114Z,1003.09
2019-01-24T03:50:06.123Z,1003.08
2019-01-24T03:51:15.382Z,1003.12
2019-01-24T03:52:24.886Z,1003.14
2019-01-24T03:53:34.638Z,1003.1
2019-01-24T03:54:43.841Z,1003.12
2019-01-24T03:55:52.857Z,1003.07
2019-01-24T03:57:01.836Z,1003.08
2019-01-24T03:58:11.623Z,1003.06
2019-01-24T03:59:20.677Z,1003.09
2019-01-24T04:00:29.928Z,1003.11
2019-01-24T04:01:39.501Z,1003.15
2019-01-24T04:02:48.797Z,1003.14
2019-01-24T04:03:58.557Z,1003.19
2019-01-24T04:05:11.868Z,1003.19
2019-01-24T04:06:21.396Z,1003.21
2019-01-24T04:07:30.420Z,1003.21
2019-01-24T04:08:39.647Z,1003.24
2019-01-24T04:09:48.867Z,1003.25
2019-01-24T04:10:57.858Z,1003.21
2019-01-24T04:12:08.353Z,1003.23
2019-01-24T04:13:18.040Z,1003.2
2019-01-24T04:14:27.826Z,1003.23
2019-01-24T04:15:37.409Z,1003.25
2019-01-24T04:16:46.422Z,1003.28
2019-01-24T04:17:55.450Z,1003.28
2019-01-24T04:19:05.039Z,1003.26
2019-01-24T04:20:14.318Z,1003.3
2019-01-24T04:21:23.599Z,1003.28
2019-01-24T04:22:33.127Z,1003.26
2019-01-24T04:23:42.424Z,1003.32
2019-01-24T04:24:51.493Z,1003.29
2019-01-24T04:26:01.298Z,1003.33
2019-01-24T04:27:10.592Z,1003.36
2019-01-24T04:28:20.641Z,1003.35
2019-01-24T04:29:29.903Z,1003.34
2019-01-24T04:30:39.395Z,1003.34
2019-01-24T04:31:48.399Z,1003.42
2019-01-24T04:32:57.637Z,1003.43
2019-01-24T04:34:06.656Z,1003.49
2019-01-24T04:35:19.812Z,1003.49
2019-01-24T04:36:30.261Z,1003.49
2019-01-24T04:37:39.577Z,1003.55
2019-01-24T04:38:48.588Z,1003.51
2019-01-24T04:39:57.573Z,1003.53
2019-01-24T04:41:06.359Z,1003.55
2019-01-24T04:42:16.376Z,1003.6
2019-01-24T04:43:25.692Z,1003.63
2019-01-24T04:44:35.540Z,1003.63
2019-01-24T04:45:45.579Z,1003.66
2019-01-24T04:46:54.813Z,1003.62
2019-01-24T04:48:04.067Z,1003.65
2019-01-24T04:49:13.083Z,1003.66
2019-01-24T04:50:22.629Z,1003.65
2019-01-24T04:51:31.581Z,1003.63
2019-01-24T04:52:40.825Z,1003.66
2019-01-24T04:53:50.344Z,1003.67
2019-01-24T04:54:59.891Z,1003.66
2019-01-24T04:56:09.632Z,1003.69
2019-01-24T04:57:19.334Z,1003.72
2019-01-24T04:58:29.030Z,1003.77
2019-01-24T04:59:39.338Z,1003.76
2019-01-24T05:00:48.390Z,1003.72
2019-01-24T05:01:57.633Z,1003.73
2019-01-24T05:03:07.116Z,1003.75
2019-01-24T05:04:16.729Z,1003.77
2019-01-24T05:05:27.754Z,1003.74
2019-01-24T05:06:37.415Z,1003.81
2019-01-24T05:07:46.157Z,1003.83
2019-01-24T05:08:55.389Z,1003.84
2019-01-24T05:10:04.903Z,1003.88
2019-01-24T05:11:14.174Z,1003.89
2019-01-24T05:12:24.015Z,1003.85
2019-01-24T05:13:33.009Z,1003.95
2019-01-24T05:14:42.566Z,1003.95
2019-01-24T05:15:52.337Z,1003.94
2019-01-24T05:17:02.048Z,1003.98
2019-01-24T05:18:11.807Z,1003.97
2019-01-24T05:19:21.130Z,1003.95
2019-01-24T05:20:30.636Z,1004.01
2019-01-24T05:21:39.901Z,1003.98
2019-01-24T05:22:49.134Z,1004
2019-01-24T05:23:58.638Z,1004.02
2019-01-24T05:25:07.920Z,1004.02
2019-01-24T05:26:17.419Z,1004.01
2019-01-24T05:27:27.177Z,1003.99
2019-01-24T05:28:37.686Z,1004.01
2019-01-24T05:29:47.413Z,1004.05
2019-01-24T05:30:57.173Z,1004.06
2019-01-24T05:32:06.157Z,1004.04
2019-01-24T05:33:15.923Z,1004.08
2019-01-24T05:34:25.691Z,1004.12
2019-01-24T05:35:35.195Z,1004.15
2019-01-24T05:36:44.246Z,1004.09
2019-01-24T05:37:54.010Z,1004.13
2019-01-24T05:39:02.827Z,1004.11
2019-01-24T05:40:11.799Z,1004.14
2019-01-24T05:41:21.063Z,1004.14
2019-01-24T05:42:30.580Z,1004.13
2019-01-24T05:43:39.843Z,1004.17
2019-01-24T05:44:48.826Z,1004.2
2019-01-24T05:45:58.063Z,1004.19
2019-01-24T05:47:07.838Z,1004.25
2019-01-24T05:48:17.583Z,1004.23
2019-01-24T05:49:26.821Z,1004.22
2019-01-24T05:50:36.601Z,1004.19
2019-01-24T05:51:45.562Z,1004.23
2019-01-24T05:52:54.592Z,1004.23
2019-01-24T05:54:04.091Z,1004.21
2019-01-24T05:55:13.560Z,1004.29
2019-01-24T05:56:23.047Z,1004.23
2019-01-24T05:57:32.590Z,1004.23
2019-01-24T05:58:41.667Z,1004.22
2019-01-24T05:59:51.176Z,1004.25
2019-01-24T06:01:00.179Z,1004.2
2019-01-24T06:02:09.508Z,1004.19
2019-01-24T06:03:19.554Z,1004.19
2019-01-24T06:04:29.084Z,1004.2
2019-01-24T06:05:41.788Z,1004.18
2019-01-24T06:06:51.331Z,1004.21
2019-01-24T06:08:00.980Z,1004.19
2019-01-24T06:09:10.296Z,1004.25
2019-01-24T06:10:19.845Z,1004.2
2019-01-24T06:11:29.435Z,1004.25
2019-01-24T06:12:38.956Z,1004.22
2019-01-24T06:13:47.985Z,1004.26
2019-01-24T06:14:57.513Z,1004.23
2019-01-24T06:16:07.043Z,1004.21
2019-01-24T06:17:16.571Z,1004.17
2019-01-24T06:18:26.364Z,1004.17
2019-01-24T06:19:35.658Z,1004.22
2019-01-24T06:20:45.409Z,1004.24
2019-01-24T06:21:54.718Z,1004.25
2019-01-24T06:23:04.267Z,1004.33
2019-01-24T06:24:13.674Z,1004.32
2019-01-24T06:25:22.941Z,1004.3
2019-01-24T06:26:32.712Z,1004.3
2019-01-24T06:27:42.218Z,1004.33
2019-01-24T06:28:51.209Z,1004.32
2019-01-24T06:30:03.398Z,1004.31
2019-01-24T06:31:12.880Z,1004.32
2019-01-24T06:32:22.123Z,1004.35
2019-01-24T06:33:31.433Z,1004.39
2019-01-24T06:34:40.672Z,1004.37
2019-01-24T06:35:50.134Z,1004.38
2019-01-24T06:36:59.879Z,1004.4
2019-01-24T06:38:09.139Z,1004.41
2019-01-24T06:39:18.831Z,1004.43
2019-01-24T06:40:28.047Z,1004.47
2019-01-24T06:41:37.278Z,1004.48
2019-01-24T06:42:46.516Z,1004.47
2019-01-24T06:43:55.782Z,1004.48
2019-01-24T06:45:05.046Z,1004.46
2019-01-24T06:46:14.367Z,1004.51
2019-01-24T06:47:23.381Z,1004.51
2019-01-24T06:48:32.404Z,1004.51
2019-01-24T06:49:42.140Z,1004.55
2019-01-24T06:50:51.141Z,1004.59
2019-01-24T06:52:00.174Z,1004.54
2019-01-24T06:53:09.409Z,1004.61
2019-01-24T06:54:18.930Z,1004.62
2019-01-24T06:55:29.363Z,1004.67
2019-01-24T06:56:38.872Z,1004.66
2019-01-24T06:57:47.828Z,1004.7
2019-01-24T06:58:57.050Z,1004.65
2019-01-24T07:00:05.757Z,1004.66
2019-01-24T07:01:15.263Z,1004.65
2019-01-24T07:02:24.571Z,1004.73
2019-01-24T07:03:33.602Z,1004.77
2019-01-24T07:04:42.871Z,1004.73
2019-01-24T07:05:55.394Z,1004.75
2019-01-24T07:07:04.284Z,1004.75
2019-01-24T07:08:13.509Z,1004.79
2019-01-24T07:09:22.502Z,1004.79
2019-01-24T07:10:31.717Z,1004.82
2019-01-24T07:11:40.966Z,1004.79
2019-01-24T07:12:49.952Z,1004.81
2019-01-24T07:13:59.171Z,1004.82
2019-01-24T07:15:08.201Z,1004.85
2019-01-24T07:16:17.418Z,1004.86
2019-01-24T07:17:26.922Z,1004.88
2019-01-24T07:18:36.654Z,1004.88
2019-01-24T07:19:45.926Z,1004.91
2019-01-24T07:20:55.154Z,1004.97
2019-01-24T07:22:04.413Z,1004.99
2019-01-24T07:23:13.916Z,1005.02
2019-01-24T07:24:23.694Z,1005.04
2019-01-24T07:25:32.939Z,1005.01
2019-01-24T07:26:42.718Z,1005.07
2019-01-24T07:27:51.466Z,1005.09
2019-01-24T07:29:00.460Z,1005.13
2019-01-24T07:30:09.695Z,1005.14
2019-01-24T07:31:18.924Z,1005.18
2019-01-24T07:32:27.978Z,1005.17
2019-01-24T07:33:37.464Z,1005.16
2019-01-24T07:34:46.958Z,1005.23
2019-01-24T07:36:01.960Z,1005.23
2019-01-24T07:37:11.566Z,1005.23
2019-01-24T07:38:20.612Z,1005.27
2019-01-24T07:39:29.907Z,1005.3
2019-01-24T07:40:39.176Z,1005.29
2019-01-24T07:41:48.413Z,1005.3
2019-01-24T07:42:57.683Z,1005.35
2019-01-24T07:44:06.472Z,1005.34
2019-01-24T07:45:15.795Z,1005.41
2019-01-24T07:46:25.078Z,1005.43
2019-01-24T07:47:34.352Z,1005.47
2019-01-24T07:48:43.360Z,1005.46
2019-01-24T07:49:52.897Z,1005.46
2019-01-24T07:51:02.267Z,1005.46
2019-01-24T07:52:11.470Z,1005.48
2019-01-24T07:53:20.497Z,1005.5
2019-01-24T07:54:30.045Z,1005.51
2019-01-24T07:55:39.627Z,1005.45
2019-01-24T07:56:49.115Z,1005.43
2019-01-24T07:57:58.100Z,1005.5
2019-01-24T07:59:07.614Z,1005.45
2019-01-24T08:00:17.172Z,1005.46
2019-01-24T08:01:26.929Z,1005.45
2019-01-24T08:02:35.950Z,1005.44
2019-01-24T08:03:45.198Z,1005.49
2019-01-24T08:04:54.656Z,1005.48
2019-01-24T08:06:08.960Z,1005.52
2019-01-24T08:07:18.907Z,1005.52
2019-01-24T08:08:28.172Z,1005.57
2019-01-24T08:09:37.177Z,1005.57
2019-01-24T08:10:46.694Z,1005.56
2019-01-24T08:11:55.958Z,1005.59
2019-01-24T08:13:05.468Z,1005.61
2019-01-24T08:14:14.777Z,1005.66
2019-01-24T08:15:24.295Z,1005.64
2019-01-24T08:16:34.302Z,1005.69
2019-01-24T08:17:43.796Z,1005.67
2019-01-24T08:18:53.573Z,1005.68
2019-01-24T08:20:03.048Z,1005.7
2019-01-24T08:21:12.063Z,1005.71
2019-01-24T08:22:21.039Z,1005.76
2019-01-24T08:23:30.858Z,1005.72
2019-01-24T08:24:40.157Z,1005.78
2019-01-24T08:25:49.922Z,1005.77
2019-01-24T08:26:58.967Z,1005.79
2019-01-24T08:28:08.040Z,1005.82
2019-01-24T08:29:17.864Z,1005.79
2019-01-24T08:30:27.191Z,1005.8
2019-01-24T08:31:36.245Z,1005.77
2019-01-24T08:32:45.538Z,1005.77
2019-01-24T08:33:55.038Z,1005.85
2019-01-24T08:35:04.336Z,1005.87
2019-01-24T08:36:15.605Z,1005.88
2019-01-24T08:37:25.746Z,1005.9
2019-01-24T08:38:34.519Z,1005.89
2019-01-24T08:39:44.081Z,1005.97
2019-01-24T08:40:53.627Z,1005.98
2019-01-24T08:42:02.913Z,1006
2019-01-24T08:43:11.923Z,1006.07
2019-01-24T08:44:20.890Z,1006.03
2019-01-24T08:45:30.167Z,1006.12
2019-01-24T08:46:39.472Z,1006.13
2019-01-24T08:47:48.773Z,1006.1
2019-01-24T08:48:57.788Z,1006.13
2019-01-24T08:50:07.097Z,1006.11
2019-01-24T08:51:17.105Z,1006.12
2019-01-24T08:52:26.382Z,1006.13
2019-01-24T08:53:35.141Z,1006.13
2019-01-24T08:54:44.889Z,1006.12
2019-01-24T08:55:53.946Z,1006.06
2019-01-24T08:57:03.721Z,1006.12
2019-01-24T08:58:12.947Z,1006.11
2019-01-24T08:59:21.926Z,1006.13
2019-01-24T09:00:36.602Z,1006.11
2019-01-24T09:01:46.142Z,1006.1
2019-01-24T09:02:55.628Z,1006.09
2019-01-24T09:04:05.387Z,1006.12
2019-01-24T09:05:14.425Z,1006.09
2019-01-24T09:06:23.437Z,1006.13
2019-01-24T09:07:32.692Z,1006.1
2019-01-24T09:08:42.165Z,1006.12
2019-01-24T09:09:51.168Z,1006.12
2019-01-24T09:11:01.775Z,1006.15
2019-01-24T09:12:10.772Z,1006.1
2019-01-24T09:13:20.315Z,1006.13
2019-01-24T09:14:29.400Z,1006.12
2019-01-24T09:15:38.667Z,1006.15
2019-01-24T09:16:48.418Z,1006.14
2019-01-24T09:17:57.673Z,1006.12
2019-01-24T09:19:07.177Z,1006.14
2019-01-24T09:20:16.651Z,1006.14
2019-01-24T09:21:26.145Z,1006.19
2019-01-24T09:22:35.395Z,1006.17
2019-01-24T09:23:45.174Z,1006.17
2019-01-24T09:24:54.206Z,1006.21
2019-01-24T09:26:03.637Z,1006.17
2019-01-24T09:27:12.670Z,1006.14
2019-01-24T09:28:22.482Z,1006.18
2019-01-24T09:29:31.736Z,1006.19
2019-01-24T09:30:41.264Z,1006.14
2019-01-24T09:31:50.751Z,1006.18
2019-01-24T09:33:00.532Z,1006.18
2019-01-24T09:34:10.067Z,1006.15
2019-01-24T09:35:19.289Z,1006.18
2019-01-24T09:36:29.265Z,1006.18
2019-01-24T09:37:38.650Z,1006.21
2019-01-24T09:38:48.107Z,1006.24
2019-01-24T09:39:57.608Z,1006.25
2019-01-24T09:41:06.856Z,1006.29
2019-01-24T09:42:16.386Z,1006.26
2019-01-24T09:43:26.140Z,1006.25
2019-01-24T09:44:35.902Z,1006.24
2019-01-24T09:45:45.367Z,1006.22
2019-01-24T09:46:54.435Z,1006.2
2019-01-24T09:48:03.917Z,1006.2
2019-01-24T09:49:13.164Z,1006.19
2019-01-24T09:50:22.674Z,1006.18
2019-01-24T09:51:31.994Z,1006.21
2019-01-24T09:52:41.626Z,1006.24
2019-01-24T09:53:51.150Z,1006.25
2019-01-24T09:55:01.454Z,1006.22
2019-01-24T09:56:10.516Z,1006.27
2019-01-24T09:57:19.557Z,1006.29
2019-01-24T09:58:29.375Z,1006.3
2019-01-24T09:59:38.362Z,1006.3
2019-01-24T10:00:47.694Z,1006.25
2019-01-24T10:01:57.224Z,1006.27
2019-01-24T10:03:07.016Z,1006.28
2019-01-24T10:04:16.314Z,1006.34
2019-01-24T10:05:26.080Z,1006.35
2019-01-24T10:06:36.574Z,1006.37
2019-01-24T10:07:46.161Z,1006.42
2019-01-24T10:08:55.665Z,1006.41
2019-01-24T10:10:04.893Z,1006.4
2019-01-24T10:11:14.385Z,1006.34
2019-01-24T10:12:30.573Z,1006.4
2019-01-24T10:13:40.149Z,1006.39
2019-01-24T10:14:49.431Z,1006.42
2019-01-24T10:15:58.957Z,1006.43
2019-01-24T10:17:08.243Z,1006.47
2019-01-24T10:18:21.586Z,1006.5
2019-01-24T10:19:30.958Z,1006.47
2019-01-24T10:20:39.970Z,1006.49
2019-01-24T10:21:49.026Z,1006.48
2019-01-24T10:22:58.595Z,1006.49
2019-01-24T10:24:07.613Z,1006.51
2019-01-24T10:25:16.842Z,1006.53
2019-01-24T10:26:25.890Z,1006.51
2019-01-24T10:27:35.430Z,1006.53
2019-01-24T10:28:44.934Z,1006.51
2019-01-24T10:29:54.240Z,1006.49
2019-01-24T10:31:03.467Z,1006.43
2019-01-24T10:32:12.725Z,1006.45
2019-01-24T10:33:22.224Z,1006.45
2019-01-24T10:34:31.943Z,1006.49
2019-01-24T10:35:41.449Z,1006.48
2019-01-24T10:36:50.710Z,1006.48
2019-01-24T10:37:59.973Z,1006.48
2019-01-24T10:39:09.216Z,1006.5
2019-01-24T10:40:18.998Z,1006.55
2019-01-24T10:41:29.937Z,1006.57
2019-01-24T10:42:39.726Z,1006.57
2019-01-24T10:43:48.752Z,1006.57
2019-01-24T10:44:58.284Z,1006.57
2019-01-24T10:46:08.074Z,1006.55
2019-01-24T10:47:17.361Z,1006.56
2019-01-24T10:48:26.642Z,1006.6
2019-01-24T10:49:35.657Z,1006.6
2019-01-24T10:50:44.932Z,1006.59
2019-01-24T10:51:54.714Z,1006.59
2019-01-24T10:53:04.237Z,1006.6
2019-01-24T10:54:13.222Z,1006.57
2019-01-24T10:55:22.774Z,1006.63
2019-01-24T10:56:32.051Z,1006.54
2019-01-24T10:57:41.968Z,1006.54
2019-01-24T10:58:51.534Z,1006.51
2019-01-24T11:00:00.557Z,1006.48
2019-01-24T11:01:09.867Z,1006.5
2019-01-24T11:02:19.144Z,1006.5
2019-01-24T11:03:28.163Z,1006.52
2019-01-24T11:04:37.455Z,1006.52
2019-01-24T11:05:47.002Z,1006.55
2019-01-24T11:06:55.792Z,1006.57
2019-01-24T11:08:05.378Z,1006.56
2019-01-24T11:09:14.937Z,1006.58
2019-01-24T11:10:24.724Z,1006.64
2019-01-24T11:11:34.518Z,1006.62
2019-01-24T11:12:44.044Z,1006.63
2019-01-24T11:13:53.615Z,1006.59
2019-01-24T11:15:03.120Z,1006.59
2019-01-24T11:16:12.357Z,1006.59
2019-01-24T11:17:21.652Z,1006.6
2019-01-24T11:18:30.938Z,1006.57
2019-01-24T11:19:40.242Z,1006.53
2019-01-24T11:20:49.529Z,1006.53
2019-01-24T11:21:58.542Z,1006.55
2019-01-24T11:23:07.837Z,1006.55
2019-01-24T11:24:17.138Z,1006.56
2019-01-24T11:25:26.161Z,1006.59
2019-01-24T11:26:35.693Z,1006.59
2019-01-24T11:27:44.931Z,1006.56
2019-01-24T11:28:53.976Z,1006.62
2019-01-24T11:30:03.526Z,1006.61
2019-01-24T11:31:12.787Z,1006.62
2019-01-24T11:32:22.022Z,1006.55
2019-01-24T11:33:31.941Z,1006.55
2019-01-24T11:34:40.961Z,1006.54
2019-01-24T11:35:50.269Z,1006.51
2019-01-24T11:36:59.614Z,1006.56
2019-01-24T11:38:08.906Z,1006.62
2019-01-24T11:39:18.422Z,1006.61
2019-01-24T11:40:27.488Z,1006.62
2019-01-24T11:41:36.764Z,1006.6
2019-01-24T11:42:45.557Z,1006.65
2019-01-24T11:43:54.603Z,1006.59
2019-01-24T11:45:03.361Z,1006.61
2019-01-24T11:46:12.894Z,1006.63
2019-01-24T11:47:22.483Z,1006.62
2019-01-24T11:48:32.006Z,1006.64
2019-01-24T11:49:41.558Z,1006.64
2019-01-24T11:50:51.319Z,1006.66
2019-01-24T11:52:00.572Z,1006.65
2019-01-24T11:53:09.865Z,1006.66
2019-01-24T11:54:19.103Z,1006.69
2019-01-24T11:55:28.126Z,1006.71
2019-01-24T11:56:37.700Z,1006.74
2019-01-24T11:57:47.266Z,1006.75
2019-01-24T11:58:57.283Z,1006.79
2019-01-24T12:00:06.786Z,1006.76
2019-01-24T12:01:16.062Z,1006.76
2019-01-24T12:02:27.185Z,1006.75
2019-01-24T12:03:42.577Z,1006.73
2019-01-24T12:04:51.831Z,1006.75
2019-01-24T12:06:00.826Z,1006.76
2019-01-24T12:07:09.929Z,1006.73
2019-01-24T12:08:19.420Z,1006.71
2019-01-24T12:09:29.004Z,1006.72
2019-01-24T12:10:38.349Z,1006.73
2019-01-24T12:11:47.440Z,1006.71
2019-01-24T12:12:56.460Z,1006.74
2019-01-24T12:14:05.703Z,1006.69
2019-01-24T12:15:14.993Z,1006.74
2019-01-24T12:16:24.015Z,1006.74
2019-01-24T12:17:33.767Z,1006.78
2019-01-24T12:18:43.133Z,1006.79
2019-01-24T12:19:52.967Z,1006.79
2019-01-24T12:21:01.982Z,1006.76
2019-01-24T12:22:11.275Z,1006.75
2019-01-24T12:23:20.687Z,1006.78
2019-01-24T12:24:31.247Z,1006.74
2019-01-24T12:25:40.234Z,1006.72
2019-01-24T12:26:49.468Z,1006.68
2019-01-24T12:27:58.806Z,1006.7
2019-01-24T12:29:08.078Z,1006.69
2019-01-24T12:30:17.307Z,1006.74
2019-01-24T12:31:26.600Z,1006.75
2019-01-24T12:32:35.940Z,1006.75
2019-01-24T12:33:44.977Z,1006.75
2019-01-24T12:34:54.707Z,1006.76
2019-01-24T12:36:03.995Z,1006.74
2019-01-24T12:37:13.532Z,1006.77
2019-01-24T12:38:22.794Z,1006.77
2019-01-24T12:39:32.362Z,1006.73
2019-01-24T12:40:41.183Z,1006.73
2019-01-24T12:41:50.454Z,1006.73
2019-01-24T12:42:59.473Z,1006.71
2019-01-24T12:44:08.354Z,1006.73
2019-01-24T12:45:18.125Z,1006.74
2019-01-24T12:46:27.481Z,1006.74
2019-01-24T12:47:36.540Z,1006.73
2019-01-24T12:48:47.118Z,1006.74
2019-01-24T12:49:56.757Z,1006.73
2019-01-24T12:51:05.779Z,1006.77
2019-01-24T12:52:15.309Z,1006.78
2019-01-24T12:53:24.852Z,1006.76
2019-01-24T12:54:34.466Z,1006.76
2019-01-24T12:55:43.537Z,1006.74
2019-01-24T12:56:52.880Z,1006.75
2019-01-24T12:58:02.220Z,1006.81
2019-01-24T12:59:11.516Z,1006.82
2019-01-24T13:00:20.524Z,1006.83
2019-01-24T13:01:29.547Z,1006.84
2019-01-24T13:02:39.108Z,1006.82
2019-01-24T13:03:48.154Z,1006.75
2019-01-24T13:04:57.734Z,1006.75
2019-01-24T13:06:06.807Z,1006.76
2019-01-24T13:07:18.426Z,1006.72
2019-01-24T13:08:27.881Z,1006.71
2019-01-24T13:09:37.750Z,1006.74
2019-01-24T13:10:47.552Z,1006.73
2019-01-24T13:11:56.612Z,1006.7
2019-01-24T13:13:06.155Z,1006.72
2019-01-24T13:14:16.275Z,1006.71
2019-01-24T13:15:25.369Z,1006.67
2019-01-24T13:16:34.895Z,1006.7
2019-01-24T13:17:44.421Z,1006.64
2019-01-24T13:18:53.759Z,1006.62
2019-01-24T13:20:03.601Z,1006.58
2019-01-24T13:21:13.127Z,1006.59
2019-01-24T13:22:22.588Z,1006.59
2019-01-24T13:23:32.150Z,1006.63
2019-01-24T13:24:41.767Z,1006.6
2019-01-24T13:25:51.337Z,1006.61
2019-01-24T13:27:01.195Z,1006.57
2019-01-24T13:28:10.781Z,1006.53
2019-01-24T13:29:20.131Z,1006.55
2019-01-24T13:30:29.230Z,1006.53
2019-01-24T13:31:38.829Z,1006.54
2019-01-24T13:32:48.428Z,1006.56
2019-01-24T13:33:58.262Z,1006.61
2019-01-24T13:35:07.759Z,1006.59
2019-01-24T13:36:17.334Z,1006.7
2019-01-24T13:37:26.585Z,1006.68
2019-01-24T13:38:36.101Z,1006.73
2019-01-24T13:39:45.132Z,1006.75
2019-01-24T13:40:53.904Z,1006.79
2019-01-24T13:42:03.197Z,1006.82
2019-01-24T13:43:12.397Z,1006.82
2019-01-24T13:44:21.919Z,1006.84
2019-01-24T13:45:30.941Z,1006.9
2019-01-24T13:46:40.826Z,1006.94
2019-01-24T13:47:49.900Z,1006.95
2019-01-24T13:48:59.989Z,1006.94
2019-01-24T13:50:09.350Z,1006.92
2019-01-24T13:51:18.644Z,1006.86
2019-01-24T13:52:28.018Z,1006.86
2019-01-24T13:53:37.132Z,1006.85
2019-01-24T13:54:46.228Z,1006.83
2019-01-24T13:55:55.485Z,1006.83
2019-01-24T13:57:04.807Z,1006.85
2019-01-24T13:58:14.430Z,1006.83
2019-01-24T13:59:23.758Z,1006.88
2019-01-24T14:00:33.046Z,1006.88
2019-01-24T14:01:42.109Z,1006.91
2019-01-24T14:02:51.942Z,1006.85
2019-01-24T14:04:01.466Z,1006.84